METAR Data
IDs: Format: Raw Decoded Include TAF

Data at: 1259 UTC 07 Jul 2020

METAR for:KRMN (Stafford Rgnl, VA, US)
Text:KRMN 071255Z AUTO 03003KT 10SM BKN015 25/22 A3010 RMK AO2 T02530218
Temperature: 25.3°C ( 78°F)
Dewpoint: 21.8°C ( 71°F) [RH = 81%]
Pressure (altimeter):30.10 inches Hg (1019.4 mb)
Winds:from the NNE (30 degrees) at 3 MPH (3 knots; 1.5 m/s)
Visibility:10 or more sm (16+ km)
Ceiling:1500 feet AGL
Clouds: broken clouds at 1500 feet AGL
QC Flag:automated observation with no human augmentation